Flight Track Log - Related Links

Times and Time Zones

All times are in EDT time to prevent confusion due to time zone crossing. See the DAL511 flight status page for this flight to view local times or setup timezone preferences in your user account.

Time Position Orientation Groundspeed Altitude Reporting Facility
EDT Latitude Longitude Course Direction KTS MPH feet Rate Location/Type
Sun 12:29:31 PM 33.6167 -84.3500 121° Southeast 221 254 3,500  Level Atlanta TRACON
Sun 12:30:31 PM 33.6000 -84.2833 107° East 257 296 7,100 2,274 Climbing Atlanta TRACON
Sun 12:31:00 PM 33.3746 -84.2579 140° Southeast  Level FlightAware Approximate
Sun 12:32:00 PM 33.2820 -84.1651 140° Southeast  Level FlightAware Approximate
Sun 12:32:41 PM 33.4331 -84.2778 178° South 304 350 10,700  Level Atlanta Center
Sun 12:33:00 PM 33.1894 -84.0725 140° Southeast  Level FlightAware Approximate
Sun 12:33:40 PM 33.3453 -84.2353 158° South 329 379 12,700  Level Atlanta Center
Sun 12:34:00 PM 33.0952 -83.9904 121° Southeast  Level FlightAware Approximate
Sun 12:34:41 PM 33.2597 -84.1506 140° Southeast 353 406 15,300  Level Atlanta Center
Sun 12:35:40 PM 33.1639 -84.0561 140° Southeast 385 443 17,700 2,050 Climbing Atlanta Center
Sun 12:36:41 PM 33.0742 -83.9669 140° Southeast 408 470 19,400 1,750 Climbing Atlanta Center
Sun 12:37:40 PM 32.9864 -83.8928 145° Southeast 425 489 21,200 1,950 Climbing Atlanta Center
Sun 12:38:41 PM 32.8819 -83.8089 146° Southeast 442 509 23,300 1,400 Climbing Atlanta Center
Sun 12:39:40 PM 32.7836 -83.7275 145° Southeast 442 509 24,000 350 Climbing Atlanta Center
Sun 12:40:41 PM 32.6831 -83.6414 144° Southeast 447 514 24,000  Level Atlanta Center
Sun 12:41:41 PM 32.5931 -83.5508 140° Southeast 442 509 24,000  Level Atlanta Center
Sun 12:42:40 PM 32.4986 -83.4550 139° Southeast 437 503 24,000  Level Atlanta Center
Sun 12:43:41 PM 32.4022 -83.3622 141° Southeast 442 509 24,000  Level Atlanta Center
Sun 12:44:40 PM 32.3097 -83.2672 139° Southeast 449 517 24,000  Level Atlanta Center
Sun 12:45:44 PM 32.2058 -83.1650 140° Southeast 445 512 24,000  Level Jacksonville Center
Sun 12:46:44 PM 32.1122 -83.0717 140° Southeast 450 518 24,000  Level Jacksonville Center
Sun 12:47:44 PM 32.0142 -82.9758 140° Southeast 450 518 24,000  Level Jacksonville Center
Sun 12:48:44 PM 31.9181 -82.8828 141° Southeast 450 518 24,000 -500 Level Jacksonville Center
Sun 12:49:44 PM 31.8219 -82.7900 141° Southeast 450 518 23,000 -900 Descending Jacksonville Center
Sun 12:50:44 PM 31.7197 -82.7069 145° Southeast 450 518 22,200 -800 Descending Jacksonville Center
Sun 12:51:44 PM 31.6150 -82.6414 152° Southeast 438 504 21,400 -750 Descending Jacksonville Center
Sun 12:52:44 PM 31.5106 -82.5758 152° Southeast 428 493 20,700 -700 Descending Jacksonville Center
Sun 12:53:44 PM 31.4081 -82.5103 151° Southeast 423 487 20,000 -843 Descending Jacksonville Center
Sun 12:54:45 PM 31.3056 -82.4453 152° Southeast 423 487 19,000 -1,450 Descending Jacksonville Center
Sun 12:55:44 PM 31.2072 -82.3825 151° Southeast 417 480 17,100 -2,258 Descending Jacksonville Center
Sun 12:56:18 PM 31.1444 -82.3392 149° Southeast 397 457 15,500 -2,557 Descending Jacksonville Center
Sun 12:56:45 PM 31.1131 -82.3200 152° Southeast 405 466 14,500 -2,345 Descending Jacksonville Center
Sun 12:57:45 PM 31.0208 -82.2597 151° Southeast 393 452 12,100 -1,350 Descending Jacksonville Center
Sun 12:58:45 PM 30.9369 -82.1853 143° Southeast 388 447 11,800 -1,000 Descending Jacksonville Center
Sun 12:59:03 PM 30.9117 -82.1564 136° Southeast 372 428 10,800 -1,800 Descending Jacksonville Center
Sun 12:59:45 PM 30.8653 -82.1036 136° Southeast 376 433 10,000 -896 Descending Jacksonville Center
Sun 01:00:10 PM 30.8339 -82.0653 134° Southeast 313 360 9,800 -1,220 Descending Jacksonville Center
Sun 01:00:44 PM 30.8064 -82.0364 138° Southeast 334 384 8,800 -1,837 Descending Jacksonville Center
Sun 01:00:59 PM 30.7875 -82.0147 135° Southeast 282 325 8,300 -1,700 Descending Jacksonville Center
Sun 01:01:44 PM 30.7497 -81.9717 136° Southeast 302 348 7,100 -1,967 Descending Jacksonville Center
Sun 01:02:00 PM 30.7328 -81.9525 136° Southeast 277 319 6,300 -1,900 Descending Jacksonville Center
Sun 01:02:44 PM 30.6886 -81.9117 142° Southeast 284 327 5,200 -1,545 Descending Jacksonville Center
Sun 01:03:06 PM 30.6656 -81.9097 176° South 238 274 4,600 -2,100 Descending Jacksonville Center
Sun 01:03:44 PM 30.6239 -81.9053 175° South 243 280 3,100 -2,262 Descending Jacksonville Center
Sun 01:04:07 PM 30.5989 -81.9031 176° South 244 281 2,300 -1,100 Descending Jacksonville Center
Sun 01:04:44 PM 30.5528 -81.8986 175° South 243 280 2,000 -269 Descending Jacksonville Center
Sun 01:05:14 PM 30.5217 -81.8992 181° South 243 280 2,000  Level Jacksonville Center
Sun 01:05:45 PM 30.4881 -81.8944 173° South 243 280 2,000  Level Jacksonville Center
Sun 01:06:15 PM 30.4567 -81.8828 162° South 228 262 2,000  Level Jacksonville Center
Sun 01:07:16 PM 30.4561 -81.8275 91° East 167 192 2,000  Level Jacksonville Center

Login

Don't have an account? Register now (free) for customized features, flight alerts, and more!